Airport View

Enter AWOS ICAO identifier for current METAR.

ex. KFNL

KDHN 192100Z 34013G20KT 2SM RA BR OVC005 21/20 A2960 RMK AO2 CIG 004V008 P0000 T02110200 $

19 Oct 2019 21:52

Phone: 334-983-5999

Other Area AWOS: KHEY - KOZR - KLOR - KEDN

TAF KDHN 191722Z 1918/2018 09014G22KT 5SM SHRA BR OVC008 FM200000 35010KT P6SM BKN009